createdAt,value
2022-09-23T00:02:19.564Z,13.35
2022-09-23T00:04:49.324Z,12.37
2022-09-23T00:07:19.111Z,12.03
2022-09-23T00:09:49.590Z,10.27
2022-09-23T00:12:19.292Z,13.90
2022-09-23T00:14:49.097Z,14.40
2022-09-23T00:17:18.881Z,11.67
2022-09-23T00:19:48.715Z,13.50
2022-09-23T00:22:18.562Z,11.53
2022-09-23T00:24:48.370Z,15.20
2022-09-23T00:27:19.878Z,13.03
2022-09-23T00:29:49.996Z,14.05
2022-09-23T00:32:19.746Z,12.78
2022-09-23T00:34:49.863Z,12.37
2022-09-23T00:37:20.160Z,11.70
2022-09-23T00:39:49.989Z,14.33
2022-09-23T00:42:21.664Z,11.25
2022-09-23T00:44:53.533Z,14.00
2022-09-23T00:47:57.844Z,10.10
2022-09-23T00:50:36.208Z,10.77
2022-09-23T00:53:09.783Z,13.40
2022-09-23T00:55:42.956Z,13.33
2022-09-23T00:58:18.732Z,14.43
2022-09-23T01:00:49.347Z,14.33
2022-09-23T01:03:19.621Z,11.53
2022-09-23T01:05:49.734Z,13.40
2022-09-23T01:08:20.921Z,14.73
2022-09-23T01:11:06.082Z,14.87
2022-09-23T01:16:13.849Z,12.18
2022-09-23T01:19:01.593Z,13.45
2022-09-23T01:21:43.215Z,12.33
2022-09-23T01:24:43.871Z,13.50
2022-09-23T01:27:34.350Z,13.25
2022-09-23T01:33:12.354Z,12.50
2022-09-23T01:35:50.836Z,14.67
2022-09-23T01:38:23.643Z,12.23
2022-09-23T01:41:08.777Z,13.10
2022-09-23T01:43:56.143Z,12.37
2022-09-23T01:46:34.530Z,16.67
2022-09-23T01:49:09.735Z,13.83
2022-09-23T01:51:42.400Z,10.57
2022-09-23T01:54:31.611Z,13.26
2022-09-23T01:57:04.377Z,12.90
2022-09-23T01:59:39.819Z,13.90
2022-09-23T02:02:23.541Z,14.57
2022-09-23T02:05:05.040Z,13.00
2022-09-23T02:07:46.238Z,11.97
2022-09-23T02:10:25.440Z,14.87
2022-09-23T02:12:58.175Z,12.03
2022-09-23T02:15:33.831Z,12.70
2022-09-23T02:18:06.329Z,14.53
2022-09-23T02:20:39.775Z,16.50
2022-09-23T02:23:13.026Z,11.65
2022-09-23T02:25:48.966Z,11.77
2022-09-23T02:30:51.985Z,12.95
2022-09-23T02:33:27.616Z,11.43
2022-09-23T02:36:01.127Z,13.20
2022-09-23T02:38:45.535Z,16.03
2022-09-23T02:41:20.859Z,11.67
2022-09-23T02:44:11.092Z,13.40
2022-09-23T02:46:43.138Z,11.03
2022-09-23T02:49:27.660Z,13.07
2022-09-23T02:52:00.070Z,13.15
2022-09-23T02:54:30.431Z,15.95
2022-09-23T02:57:03.037Z,13.53
2022-09-23T02:59:34.216Z,13.35
2022-09-23T03:02:26.480Z,14.70
2022-09-23T03:05:24.359Z,14.30
2022-09-23T03:08:22.475Z,12.77
2022-09-23T03:11:04.161Z,16.47
2022-09-23T03:13:54.837Z,17.07
2022-09-23T03:16:33.129Z,15.93
2022-09-23T03:19:25.157Z,17.60
2022-09-23T03:22:03.527Z,14.83
2022-09-23T03:24:36.116Z,14.70
2022-09-23T03:27:12.899Z,15.43
2022-09-23T03:29:48.521Z,10.70
2022-09-23T03:32:21.069Z,16.80
2022-09-23T03:34:53.105Z,13.25
2022-09-23T03:37:30.163Z,12.18
2022-09-23T03:40:12.183Z,16.20
2022-09-23T03:42:42.855Z,12.55
2022-09-23T03:45:17.566Z,15.03
2022-09-23T03:47:47.730Z,12.63
2022-09-23T03:50:18.689Z,13.66
2022-09-23T03:52:50.363Z,12.23
2022-09-23T03:55:21.353Z,16.30
2022-09-23T03:57:51.185Z,14.03
2022-09-23T04:00:20.860Z,14.33
2022-09-23T04:02:50.756Z,12.87
2022-09-23T04:05:20.276Z,11.88
2022-09-23T04:07:51.111Z,13.10
2022-09-23T04:10:20.689Z,12.27
2022-09-23T04:12:50.517Z,11.97
2022-09-23T04:15:20.008Z,12.35
2022-09-23T04:17:49.729Z,11.33
2022-09-23T04:20:20.471Z,11.95
2022-09-23T04:22:50.200Z,9.70
2022-09-23T04:25:19.673Z,10.83
2022-09-23T04:27:49.516Z,13.53
2022-09-23T04:30:19.720Z,11.65
2022-09-23T04:32:49.936Z,11.10
2022-09-23T04:35:19.559Z,14.40
2022-09-23T04:37:49.577Z,12.97
2022-09-23T04:40:19.488Z,11.40
2022-09-23T04:42:50.338Z,15.10
2022-09-23T04:45:20.148Z,9.93
2022-09-23T04:47:49.901Z,12.63
2022-09-23T04:50:19.840Z,12.18
2022-09-23T04:52:49.669Z,12.63
2022-09-23T04:55:19.512Z,13.95
2022-09-23T04:57:49.403Z,14.50
2022-09-23T05:00:19.327Z,10.63
2022-09-23T05:02:50.517Z,11.97
2022-09-23T05:05:21.057Z,9.70
2022-09-23T05:07:51.690Z,14.00
2022-09-23T05:10:21.548Z,10.58
2022-09-23T05:12:56.334Z,11.67
2022-09-23T05:15:22.450Z,10.25
2022-09-23T05:17:52.196Z,10.07
2022-09-23T05:20:21.706Z,12.80
2022-09-23T05:22:53.188Z,11.87
2022-09-23T05:25:25.794Z,10.88
2022-09-23T05:27:55.555Z,17.23
2022-09-23T05:30:25.497Z,9.95
2022-09-23T05:32:55.282Z,10.03
2022-09-23T05:35:25.042Z,12.35
2022-09-23T05:37:54.802Z,13.30
2022-09-23T05:40:24.304Z,10.93
2022-09-23T05:42:53.999Z,14.40
2022-09-23T05:45:26.806Z,9.37
2022-09-23T05:47:55.852Z,10.37
2022-09-23T05:50:25.599Z,13.28
2022-09-23T05:52:55.590Z,10.87
2022-09-23T05:55:25.328Z,11.83
2022-09-23T05:57:55.089Z,13.47
2022-09-23T06:00:26.149Z,9.17
2022-09-23T06:02:55.961Z,11.67
2022-09-23T06:05:25.783Z,13.75
2022-09-23T06:07:55.598Z,11.07
2022-09-23T06:10:26.946Z,9.30
2022-09-23T06:12:56.691Z,14.63
2022-09-23T06:15:27.253Z,11.13
2022-09-23T06:17:57.130Z,12.97
2022-09-23T06:20:26.980Z,11.73
2022-09-23T06:22:58.064Z,9.27
2022-09-23T06:25:28.080Z,15.85
2022-09-23T06:27:59.184Z,10.93
2022-09-23T06:30:30.737Z,11.10
2022-09-23T06:33:01.880Z,9.00
2022-09-23T06:35:33.185Z,9.00
2022-09-23T06:38:06.596Z,9.37
2022-09-23T06:40:36.421Z,8.60
2022-09-23T06:43:06.195Z,10.33
2022-09-23T06:45:35.950Z,11.33
2022-09-23T06:48:08.444Z,10.93
2022-09-23T06:50:37.896Z,11.75
2022-09-23T06:53:07.646Z,10.47
2022-09-23T06:55:37.412Z,13.87
2022-09-23T06:58:09.079Z,11.20
2022-09-23T07:00:38.959Z,10.63
2022-09-23T07:03:10.040Z,9.77
2022-09-23T07:05:39.768Z,21.07
2022-09-23T07:08:10.337Z,8.77
2022-09-23T07:10:40.755Z,14.70
2022-09-23T07:13:15.523Z,14.30
2022-09-23T07:15:42.703Z,11.07
2022-09-23T07:18:12.995Z,10.53
2022-09-23T07:20:42.753Z,14.23
2022-09-23T07:23:12.519Z,9.47
2022-09-23T07:25:42.801Z,14.27
2022-09-23T07:28:14.152Z,11.33
2022-09-23T07:30:56.210Z,9.97
2022-09-23T07:33:29.892Z,11.07
2022-09-23T07:35:47.953Z,10.20
2022-09-23T07:38:17.779Z,11.40
2022-09-23T07:40:47.686Z,11.80
2022-09-23T07:43:19.068Z,9.95
2022-09-23T07:45:48.817Z,9.60
2022-09-23T07:48:18.421Z,12.65
2022-09-23T07:50:47.925Z,10.25
2022-09-23T07:53:17.685Z,11.17
2022-09-23T07:55:56.057Z,11.43
2022-09-23T07:58:26.653Z,9.60
2022-09-23T08:00:58.395Z,10.80
2022-09-23T08:03:28.413Z,9.27
2022-09-23T08:06:07.112Z,11.83
2022-09-23T08:08:39.640Z,12.03
2022-09-23T08:11:11.667Z,14.43
2022-09-23T08:13:42.545Z,15.13
2022-09-23T08:16:12.458Z,13.07
2022-09-23T08:18:46.957Z,9.35
2022-09-23T08:21:21.933Z,13.90
2022-09-23T08:23:51.952Z,12.07
2022-09-23T08:26:22.626Z,9.23
2022-09-23T08:28:54.537Z,10.50
2022-09-23T08:31:24.690Z,10.57
2022-09-23T08:33:59.490Z,12.65
2022-09-23T08:36:29.526Z,12.30
2022-09-23T08:38:59.603Z,9.93
2022-09-23T08:41:37.945Z,20.00
2022-09-23T08:44:25.899Z,12.35
2022-09-23T08:46:58.892Z,10.23
2022-09-23T08:49:34.221Z,11.03
2022-09-23T08:52:09.162Z,13.48
2022-09-23T08:54:38.898Z,14.30
2022-09-23T08:57:11.684Z,10.87
2022-09-23T08:59:45.797Z,12.20
2022-09-23T09:02:18.650Z,17.10
2022-09-23T09:04:53.823Z,14.90
2022-09-23T09:07:36.764Z,10.60
2022-09-23T09:10:08.290Z,8.25
2022-09-23T09:12:45.651Z,10.80
2022-09-23T09:15:24.895Z,14.30
2022-09-23T09:18:11.157Z,11.40
2022-09-23T09:20:49.882Z,8.33
2022-09-23T09:23:37.613Z,9.53
2022-09-23T09:26:11.512Z,10.00
2022-09-23T09:29:02.520Z,9.90
2022-09-23T09:31:44.207Z,36.10
2022-09-23T09:34:22.641Z,9.77
2022-09-23T09:37:07.291Z,11.15
2022-09-23T09:39:37.923Z,8.65
2022-09-23T09:42:12.958Z,12.00
2022-09-23T09:44:55.270Z,9.63
2022-09-23T09:48:00.363Z,10.80
2022-09-23T09:50:51.783Z,8.47
2022-09-23T09:53:30.242Z,7.73
2022-09-23T09:56:08.756Z,11.87
2022-09-23T09:58:50.465Z,8.43
2022-09-23T10:01:28.061Z,11.13
2022-09-23T10:04:00.922Z,8.10
2022-09-23T10:06:33.408Z,7.50
2022-09-23T10:09:12.004Z,6.97
2022-09-23T10:11:42.709Z,12.87
2022-09-23T10:14:16.863Z,10.57
2022-09-23T10:16:49.254Z,12.27
2022-09-23T10:19:25.173Z,13.63
2022-09-23T10:21:59.481Z,9.33
2022-09-23T10:24:35.572Z,7.40
2022-09-23T10:27:11.764Z,10.53
2022-09-23T10:29:43.650Z,9.87
2022-09-23T10:32:19.933Z,9.90
2022-09-23T10:34:58.438Z,9.60
2022-09-23T10:37:43.453Z,12.35
2022-09-23T10:40:53.104Z,11.74
2022-09-23T10:43:54.850Z,11.57
2022-09-23T10:46:48.401Z,10.87
2022-09-23T10:49:24.179Z,11.15
2022-09-23T10:52:16.032Z,9.17
2022-09-23T10:55:21.997Z,11.07
2022-09-23T10:58:14.172Z,10.78
2022-09-23T11:01:01.812Z,9.97
2022-09-23T11:03:57.315Z,9.70
2022-09-23T11:06:39.399Z,9.43
2022-09-23T11:09:15.082Z,11.63
2022-09-23T11:11:56.922Z,11.93
2022-09-23T11:14:45.499Z,12.18
2022-09-23T11:17:36.343Z,11.20
2022-09-23T11:20:23.052Z,11.38
2022-09-23T11:22:57.011Z,13.00
2022-09-23T11:25:32.389Z,12.90
2022-09-23T11:28:05.177Z,15.13
2022-09-23T11:30:43.682Z,11.23
2022-09-23T11:33:24.884Z,11.40
2022-09-23T11:36:00.279Z,11.43
2022-09-23T11:38:33.060Z,13.03
2022-09-23T11:41:06.224Z,11.08
2022-09-23T11:43:39.810Z,8.97
2022-09-23T11:46:23.300Z,14.20
2022-09-23T11:49:04.913Z,12.87
2022-09-23T11:51:54.849Z,12.10
2022-09-23T11:54:42.130Z,21.57
2022-09-23T11:57:17.432Z,9.53
2022-09-23T12:00:04.875Z,10.60
2022-09-23T12:02:59.222Z,16.53
2022-09-23T12:05:22.640Z,10.05
2022-09-23T12:08:04.415Z,8.03
2022-09-23T12:10:53.682Z,6.47
2022-09-23T12:13:54.807Z,11.37
2022-09-23T12:16:49.046Z,10.28
2022-09-23T12:19:24.565Z,8.73
2022-09-23T12:21:57.965Z,7.37
2022-09-23T12:24:31.320Z,10.60
2022-09-23T12:27:05.928Z,6.30
2022-09-23T12:29:37.729Z,9.10
2022-09-23T12:32:13.008Z,14.88
2022-09-23T12:34:47.078Z,6.93
2022-09-23T12:37:35.005Z,10.47
2022-09-23T12:40:30.233Z,11.03
2022-09-23T12:43:01.187Z,7.27
2022-09-23T12:45:34.920Z,10.95
2022-09-23T12:48:20.917Z,9.13
2022-09-23T12:50:55.909Z,8.87
2022-09-23T12:53:37.640Z,10.10
2022-09-23T12:56:19.694Z,8.80
2022-09-23T12:58:52.467Z,14.37
2022-09-23T13:01:25.033Z,7.90
2022-09-23T13:04:14.704Z,10.13
2022-09-23T13:07:08.135Z,9.07
2022-09-23T13:09:43.487Z,6.60
2022-09-23T13:12:21.729Z,8.70
2022-09-23T13:14:53.991Z,6.10
2022-09-23T13:17:27.156Z,9.57
2022-09-23T13:20:02.518Z,6.75
2022-09-23T13:22:53.420Z,7.05
2022-09-23T13:25:34.863Z,7.47
2022-09-23T13:28:09.362Z,5.07
2022-09-23T13:30:42.145Z,11.87
2022-09-23T13:33:27.421Z,4.87
2022-09-23T13:36:02.093Z,5.03
2022-09-23T13:38:32.961Z,4.20
2022-09-23T13:41:20.921Z,9.08
2022-09-23T13:43:53.684Z,7.00
2022-09-23T13:46:26.212Z,4.97
2022-09-23T13:48:56.778Z,9.03
2022-09-23T13:51:37.250Z,4.47
2022-09-23T13:54:09.656Z,8.63
2022-09-23T13:56:42.854Z,7.47
2022-09-23T13:59:18.520Z,7.50
2022-09-23T14:01:48.066Z,4.53
2022-09-23T14:04:27.372Z,5.47
2022-09-23T14:06:57.562Z,10.67
2022-09-23T14:09:30.033Z,8.43
2022-09-23T14:12:01.687Z,7.67
2022-09-23T14:14:32.005Z,6.57
2022-09-23T14:17:02.536Z,6.53
2022-09-23T14:19:33.868Z,8.43
2022-09-23T14:22:03.682Z,10.50
2022-09-23T14:24:39.636Z,7.23
2022-09-23T14:29:42.761Z,13.10
2022-09-23T14:32:19.126Z,6.60
2022-09-23T14:34:54.748Z,6.10
2022-09-23T14:37:51.069Z,6.47
2022-09-23T14:40:24.613Z,5.73
2022-09-23T14:43:02.806Z,6.60
2022-09-23T14:45:35.689Z,7.97
2022-09-23T14:48:16.814Z,8.95
2022-09-23T14:50:54.472Z,6.80
2022-09-23T14:53:33.182Z,9.60
2022-09-23T14:56:11.468Z,6.57
2022-09-23T14:58:58.801Z,5.93
2022-09-23T15:01:37.341Z,7.23
2022-09-23T15:04:18.249Z,10.47
2022-09-23T15:06:56.830Z,8.00
2022-09-23T15:09:29.930Z,14.30
2022-09-23T15:12:02.833Z,9.20
2022-09-23T15:14:39.857Z,8.53
2022-09-23T15:17:33.799Z,7.17
2022-09-23T15:20:21.301Z,11.65
2022-09-23T15:22:56.593Z,8.30
2022-09-23T15:25:38.383Z,8.47
2022-09-23T15:28:15.773Z,9.63
2022-09-23T15:30:45.756Z,6.77
2022-09-23T15:33:16.120Z,7.50
2022-09-23T15:35:49.962Z,6.87
2022-09-23T15:38:19.775Z,9.15
2022-09-23T15:40:49.881Z,7.40
2022-09-23T15:43:23.150Z,9.70
2022-09-23T15:45:56.316Z,9.37
2022-09-23T15:48:35.687Z,11.05
2022-09-23T15:51:08.081Z,11.57
2022-09-23T15:53:38.192Z,10.10
2022-09-23T15:56:09.787Z,11.57
2022-09-23T15:58:39.608Z,11.47
2022-09-23T16:01:12.807Z,11.87
2022-09-23T16:03:42.510Z,10.83
2022-09-23T16:06:13.797Z,11.17
2022-09-23T16:08:43.566Z,10.40
2022-09-23T16:11:22.459Z,11.00
2022-09-23T16:13:52.364Z,18.87
2022-09-23T16:16:21.996Z,11.83
2022-09-23T16:18:51.983Z,13.67
2022-09-23T16:21:24.613Z,16.07
2022-09-23T16:23:56.442Z,14.10
2022-09-23T16:26:35.867Z,13.53
2022-09-23T16:29:05.713Z,12.40
2022-09-23T16:31:36.087Z,13.30
2022-09-23T16:34:08.387Z,15.08
2022-09-23T16:36:41.807Z,13.80
2022-09-23T16:39:14.185Z,21.53
2022-09-23T16:41:43.915Z,14.60
2022-09-23T16:44:14.339Z,15.28
2022-09-23T16:46:44.084Z,14.20
2022-09-23T16:49:13.984Z,15.00
2022-09-23T16:51:44.094Z,13.53
2022-09-23T16:54:14.471Z,11.77
2022-09-23T16:56:45.542Z,15.87
2022-09-23T16:59:16.327Z,13.50
2022-09-23T17:02:03.592Z,11.55
2022-09-23T17:04:33.745Z,16.17
2022-09-23T17:07:03.477Z,12.87
2022-09-23T17:09:33.513Z,16.95
2022-09-23T17:12:07.166Z,14.23
2022-09-23T17:14:37.099Z,13.90
2022-09-23T17:17:06.831Z,15.40
2022-09-23T17:19:38.253Z,15.17
2022-09-23T17:22:09.951Z,22.70
2022-09-23T17:24:39.673Z,21.23
2022-09-23T17:27:09.720Z,18.20
2022-09-23T17:29:39.489Z,17.97
2022-09-23T17:32:11.380Z,14.27
2022-09-23T17:34:42.781Z,16.83
2022-09-23T17:37:12.518Z,18.07
2022-09-23T17:39:42.556Z,18.13
2022-09-23T17:42:12.366Z,14.68
2022-09-23T17:44:42.272Z,15.40
2022-09-23T17:47:12.058Z,19.53
2022-09-23T17:49:43.433Z,16.00
2022-09-23T17:52:13.198Z,13.28
2022-09-23T17:54:43.040Z,16.40
2022-09-23T17:57:13.406Z,14.77
2022-09-23T17:59:43.151Z,16.20
2022-09-23T18:02:15.661Z,15.40
2022-09-23T18:04:44.474Z,17.43
2022-09-23T18:07:14.503Z,14.18
2022-09-23T18:09:44.297Z,19.97
2022-09-23T18:12:14.754Z,17.65
2022-09-23T18:14:45.276Z,18.10
2022-09-23T18:17:15.011Z,16.40
2022-09-23T18:19:46.691Z,17.57
2022-09-23T18:22:16.429Z,16.77
2022-09-23T18:24:46.167Z,15.70
2022-09-23T18:27:15.897Z,17.00
2022-09-23T18:29:45.645Z,14.53
2022-09-23T18:32:15.164Z,17.73
2022-09-23T18:34:44.954Z,18.27
2022-09-23T18:37:16.148Z,16.17
2022-09-23T18:39:46.013Z,14.50
2022-09-23T18:42:15.452Z,16.45
2022-09-23T18:44:45.634Z,19.40
2022-09-23T18:47:17.062Z,18.77
2022-09-23T18:50:04.377Z,19.17
2022-09-23T18:52:34.207Z,19.57
2022-09-23T18:55:04.034Z,22.07
2022-09-23T18:57:33.777Z,24.03
2022-09-23T19:00:04.554Z,18.15
2022-09-23T19:02:34.597Z,16.05
2022-09-23T19:05:04.055Z,18.95
2022-09-23T19:07:33.811Z,23.33
2022-09-23T19:10:03.657Z,20.30
2022-09-23T19:12:33.381Z,19.47
2022-09-23T19:15:04.585Z,18.50
2022-09-23T19:17:34.397Z,19.40
2022-09-23T19:20:07.340Z,24.10
2022-09-23T19:22:37.091Z,28.50
2022-09-23T19:25:08.709Z,26.37
2022-09-23T19:27:40.123Z,26.65
2022-09-23T19:30:12.105Z,19.32
2022-09-23T19:32:43.380Z,25.13
2022-09-23T19:35:14.805Z,22.23
2022-09-23T19:37:45.947Z,21.10
2022-09-23T19:40:16.693Z,25.48
2022-09-23T19:42:46.798Z,22.93
2022-09-23T19:45:17.196Z,23.32
2022-09-23T19:47:47.203Z,19.10
2022-09-23T19:50:16.986Z,24.90
2022-09-23T19:52:46.740Z,24.37
2022-09-23T19:55:16.561Z,23.27
2022-09-23T19:57:47.163Z,23.47
2022-09-23T20:00:17.041Z,24.67
2022-09-23T20:02:47.410Z,28.98
2022-09-23T20:05:20.285Z,25.57
2022-09-23T20:07:48.731Z,24.70
2022-09-23T20:10:18.493Z,31.80
2022-09-23T20:12:48.302Z,21.57
2022-09-23T20:15:17.960Z,23.20
2022-09-23T20:17:47.676Z,24.70
2022-09-23T20:20:17.831Z,25.23
2022-09-23T20:22:48.047Z,24.95
2022-09-23T20:25:17.866Z,24.60
2022-09-23T20:27:51.435Z,26.33
2022-09-23T20:30:21.607Z,23.13
2022-09-23T20:32:51.399Z,23.63
2022-09-23T20:35:21.368Z,25.05
2022-09-23T20:37:51.800Z,21.17
2022-09-23T20:40:22.876Z,27.97
2022-09-23T20:42:53.813Z,27.73
2022-09-23T20:45:23.570Z,25.35
2022-09-23T20:47:53.318Z,22.50
2022-09-23T20:50:23.064Z,32.20
2022-09-23T20:52:53.576Z,24.93
2022-09-23T20:55:23.029Z,23.97
2022-09-23T20:57:52.768Z,22.20
2022-09-23T21:00:22.239Z,26.27
2022-09-23T21:02:52.034Z,23.03
2022-09-23T21:05:23.176Z,25.23
2022-09-23T21:07:52.994Z,22.63
2022-09-23T21:10:22.743Z,26.93
2022-09-23T21:12:52.555Z,26.83
2022-09-23T21:15:22.901Z,23.02
2022-09-23T21:17:52.910Z,23.57
2022-09-23T21:20:22.672Z,23.80
2022-09-23T21:22:52.120Z,22.40
2022-09-23T21:25:30.146Z,24.40
2022-09-23T21:27:53.984Z,25.87
2022-09-23T21:30:23.750Z,29.48
2022-09-23T21:32:53.473Z,25.83
2022-09-23T21:35:23.573Z,29.32
2022-09-23T21:37:53.615Z,30.02
2022-09-23T21:40:40.881Z,25.53
2022-09-23T21:43:10.738Z,26.03
2022-09-23T21:45:40.492Z,24.87
2022-09-23T21:48:09.957Z,30.33
2022-09-23T21:50:40.944Z,28.65
2022-09-23T21:53:10.763Z,29.83
2022-09-23T21:55:40.510Z,27.93
2022-09-23T21:58:11.671Z,28.36
2022-09-23T22:00:41.505Z,34.60
2022-09-23T22:03:12.278Z,27.97
2022-09-23T22:05:43.931Z,32.70
2022-09-23T22:08:13.667Z,36.65
2022-09-23T22:10:43.677Z,30.83
2022-09-23T22:13:13.420Z,30.27
2022-09-23T22:15:43.784Z,34.30
2022-09-23T22:18:13.340Z,37.63
2022-09-23T22:20:43.618Z,36.80
2022-09-23T22:23:14.557Z,38.73
2022-09-23T22:25:44.601Z,31.05
2022-09-23T22:28:31.652Z,32.55
2022-09-23T22:31:19.049Z,30.97
2022-09-23T22:33:50.575Z,28.35
2022-09-23T22:36:20.173Z,32.20
2022-09-23T22:38:58.897Z,36.17
2022-09-23T22:41:25.368Z,30.73
2022-09-23T22:43:55.126Z,31.97
2022-09-23T22:46:25.166Z,26.27
2022-09-23T22:48:54.993Z,26.43
2022-09-23T22:51:24.815Z,32.17
2022-09-23T22:53:55.112Z,31.00
2022-09-23T22:56:24.664Z,27.03
2022-09-23T22:58:56.046Z,28.60
2022-09-23T23:01:26.833Z,28.60
2022-09-23T23:03:58.108Z,26.77
2022-09-23T23:06:30.237Z,30.57
2022-09-23T23:09:01.618Z,31.93
2022-09-23T23:11:31.365Z,33.03
2022-09-23T23:14:02.337Z,31.50
2022-09-23T23:16:33.872Z,28.13
2022-09-23T23:19:06.512Z,26.97
2022-09-23T23:21:37.125Z,27.47
2022-09-23T23:24:08.375Z,28.37
2022-09-23T23:26:38.098Z,27.87
2022-09-23T23:29:07.837Z,27.57
2022-09-23T23:31:37.768Z,27.27
2022-09-23T23:34:12.796Z,27.00
2022-09-23T23:36:43.581Z,27.77
2022-09-23T23:39:14.039Z,28.10
2022-09-23T23:41:43.782Z,25.80
2022-09-23T23:44:13.957Z,26.40
2022-09-23T23:46:43.797Z,28.13
2022-09-23T23:49:13.570Z,27.23
2022-09-23T23:51:43.457Z,29.87
2022-09-23T23:54:13.346Z,30.47
2022-09-23T23:56:43.590Z,29.93
2022-09-23T23:59:13.904Z,26.62
